| time (UTC) | temp F | wind direction | speed MPH | gust MPH | rain 1hr in | rain 24hr in | rain mn in | humidity % | barometer mb |
| 20260902073047 | 56 | 171 | 1.0 | 5.0 | 0.00 | 0.07 | 0.05 | 91 | 1011.0 |
| 20260902071546 | 56 | 230 | 0.0 | 8.0 | 0.00 | 0.07 | 0.05 | 92 | 1011.0 |
| 20260902070045 | 55 | 244 | 1.0 | 6.0 | 0.00 | 0.07 | 0.05 | 95 | 1011.1 |
| 20260902064546 | 54 | 197 | 0.0 | 3.0 | 0.00 | 0.07 | 0.05 | 97 | 1011.0 |
| 20260902063044 | 53 | 200 | 0.0 | 2.0 | 0.00 | 0.07 | 0.05 | 97 | 1010.9 |
| 20260902061548 | 53 | 200 | 0.0 | 2.0 | 0.00 | 0.07 | 0.05 | 97 | 1010.9 |
| 20260902060043 | 52 | 200 | 0.0 | 2.0 | 0.00 | 0.07 | 0.05 | 97 | 1010.9 |
| 20260902054543 | 51 | 219 | 0.0 | 3.0 | 0.00 | 0.07 | 0.05 | 97 | 1010.9 |
| 20260902053043 | 51 | 241 | 0.0 | 1.0 | 0.00 | 0.07 | 0.05 | 96 | 1010.8 |
| 20260902051542 | 51 | 224 | 0.0 | 2.0 | 0.00 | 0.07 | 0.05 | 96 | 1010.9 |
| 20260902050040 | 51 | 224 | 0.0 | 2.0 | 0.00 | 0.07 | 0.05 | 96 | 1010.8 |
| 20260902044545 | 51 | 223 | 0.0 | 2.0 | 0.00 | 0.07 | 0.05 | 96 | 1010.8 |
| 20260902043047 | 52 | 224 | 0.0 | 2.0 | 0.00 | 0.07 | 0.05 | 95 | 1010.7 |
| 20260902041538 | 52 | 174 | 0.0 | 3.0 | 0.00 | 0.07 | 0.05 | 95 | 1010.6 |
| 20260902040037 | 52 | 170 | 1.0 | 3.0 | 0.00 | 0.07 | 0.05 | 95 | 1010.7 |
| 20260902034534 | 53 | 206 | 0.0 | 3.0 | 0.00 | 0.08 | 0.05 | 95 | 1010.7 |
| 20260902033032 | 53 | 207 | 0.0 | 3.0 | 0.00 | 0.08 | 0.05 | 96 | 1010.5 |
| 20260902031538 | 53 | 192 | 1.0 | 8.0 | 0.00 | 0.08 | 0.05 | 96 | 1010.5 |
| 20260902030031 | 54 | 158 | 1.0 | 3.0 | 0.00 | 0.08 | 0.05 | 96 | 1010.6 |
| 20260902024527 | 54 | 186 | 1.0 | 4.0 | 0.00 | 0.08 | 0.05 | 96 | 1010.5 |
| 20260902023033 | 55 | 223 | 2.0 | 6.0 | 0.00 | 0.08 | 0.05 | 95 | 1010.4 |
| 20260902021524 | 55 | 188 | 2.0 | 5.0 | 0.00 | 0.08 | 0.05 | 96 | 1010.5 |
| 20260902020026 | 56 | 209 | 1.0 | 4.0 | 0.00 | 0.08 | 0.05 | 95 | 1010.2 |
| 20260902014522 | 56 | 192 | 1.0 | 8.0 | 0.00 | 0.08 | 0.05 | 96 | 1010.1 |
| 20260902013017 | 57 | 179 | 1.0 | 5.0 | 0.00 | 0.08 | 0.05 | 96 | 1010.1 |
| 20260902011515 | 57 | 233 | 2.0 | 6.0 | 0.00 | 0.08 | 0.05 | 96 | 1009.8 |
| 20260902010013 | 58 | 141 | 1.0 | 5.0 | 0.02 | 0.08 | 0.05 | 96 | 1009.6 |
| 20260902004510 | 59 | 175 | 1.0 | 5.0 | 0.03 | 0.08 | 0.05 | 96 | 1009.5 |
| 20260902003009 | 59 | 185 | 2.0 | 6.0 | 0.04 | 0.08 | 0.05 | 96 | 1009.5 |
| 20260902001507 | 60 | 204 | 1.0 | 9.0 | 0.04 | 0.08 | 0.05 | 96 | 1009.6 |
| 20260902000005 | 60 | 232 | 2.0 | 10.0 | 0.03 | 0.07 | 0.04 | 96 | 1009.7 |
| 20260901234505 | 60 | 188 | 2.0 | 10.0 | 0.01 | 0.05 | 0.02 | 95 | 1009.5 |
| 20260901233005 | 61 | 168 | 2.0 | 8.0 | 0.00 | 0.04 | 0.01 | 96 | 1009.7 |
| 20260901231503 | 61 | 202 | 6.0 | 14.0 | 0.01 | 0.04 | 0.01 | 96 | 1009.7 |
| 20260901230001 | 60 | 185 | 4.0 | 9.0 | 0.01 | 0.04 | 0.01 | 96 | 1009.8 |
| 20260901224559 | 60 | 201 | 4.0 | 14.0 | 0.01 | 0.04 | 0.01 | 96 | 1009.8 |
| 20260901223057 | 60 | 179 | 2.0 | 9.0 | 0.01 | 0.04 | 0.01 | 96 | 1010.0 |
| 20260901221617 | 60 | 184 | 3.0 | 16.0 | 0.00 | 0.03 | 0.00 | 95 | 1010.0 |
| 20260901220107 | 60 | 154 | 3.0 | 10.0 | 0.01 | 0.03 | 0.00 | 95 | 1010.2 |
| 20260901214552 | 59 | 155 | 3.0 | 10.0 | 0.02 | 0.03 | 0.03 | 95 | 1010.3 |
| 20260901213106 | 59 | 172 | 1.0 | 5.0 | 0.02 | 0.03 | 0.03 | 94 | 1010.5 |
| 20260901211553 | 59 | 209 | 1.0 | 6.0 | 0.02 | 0.03 | 0.03 | 93 | 1010.6 |
| 20260901210052 | 59 | 186 | 3.0 | 8.0 | 0.02 | 0.03 | 0.03 | 93 | 1010.7 |
| 20260901204605 | 58 | 163 | 5.0 | 9.0 | 0.00 | 0.01 | 0.01 | 91 | 1010.9 |
| 20260901203057 | 57 | 190 | 1.0 | 3.0 | 0.00 | 0.01 | 0.01 | 87 | 1011.1 |
| 20260901201556 | 57 | 190 | 0.0 | 2.0 | 0.00 | 0.01 | 0.01 | 86 | 1011.3 |
| 20260901200114 | 57 | 190 | 0.0 | 3.0 | 0.00 | 0.01 | 0.01 | 85 | 1011.3 |
| 20260901194606 | 57 | 187 | 0.0 | 3.0 | 0.00 | 0.01 | 0.01 | 85 | 1011.2 |
| 20260901193053 | 58 | 202 | 1.0 | 7.0 | 0.00 | 0.01 | 0.01 | 84 | 1011.5 |
| 20260901191628 | 58 | 218 | 2.0 | 7.0 | 0.00 | 0.01 | 0.01 | 83 | 1011.5 |
| 20260901190058 | 58 | 178 | 2.0 | 5.0 | 0.00 | 0.01 | 0.01 | 82 | 1011.5 |
| 20260901184549 | 58 | 207 | 2.0 | 9.0 | 0.00 | 0.01 | 0.01 | 81 | 1011.5 |
| 20260901183053 | 59 | 184 | 2.0 | 12.0 | 0.00 | 0.01 | 0.01 | 80 | 1011.4 |
| 20260901181551 | 59 | 171 | 1.0 | 8.0 | 0.00 | 0.01 | 0.01 | 79 | 1011.4 |
| 20260901180044 | 59 | 176 | 3.0 | 10.0 | 0.00 | 0.01 | 0.01 | 79 | 1011.1 |
| 20260901174545 | 60 | 161 | 4.0 | 12.0 | 0.00 | 0.01 | 0.01 | 79 | 1011.0 |
| 20260901173042 | 60 | 198 | 2.0 | 7.0 | 0.00 | 0.01 | 0.01 | 80 | 1011.0 |
| 20260901171541 | 61 | 217 | 3.0 | 11.0 | 0.00 | 0.01 | 0.01 | 79 | 1010.8 |
| 20260901170051 | 62 | 205 | 4.0 | 9.0 | 0.00 | 0.01 | 0.01 | 78 | 1010.8 |
| 20260901164540 | 63 | 183 | 3.0 | 10.0 | 0.00 | 0.01 | 0.01 | 76 | 1010.6 |
| 20260901163045 | 64 | 215 | 3.0 | 14.0 | 0.00 | 0.01 | 0.01 | 76 | 1010.6 |
| 20260901161540 | 65 | 202 | 2.0 | 8.0 | 0.00 | 0.01 | 0.01 | 76 | 1010.6 |
| 20260901160057 | 65 | 181 | 2.0 | 11.0 | 0.00 | 0.01 | 0.01 | 74 | 1010.5 |
| 20260901154537 | 65 | 208 | 3.0 | 12.0 | 0.00 | 0.01 | 0.01 | 74 | 1010.5 |
| 20260901153035 | 66 | 217 | 2.0 | 10.0 | 0.00 | 0.01 | 0.01 | 73 | 1010.3 |
| 20260901151541 | 67 | 192 | 3.0 | 11.0 | 0.00 | 0.01 | 0.01 | 72 | 1010.1 |
| 20260901150039 | 67 | 186 | 4.0 | 12.0 | 0.00 | 0.01 | 0.01 | 72 | 1010.1 |
| 20260901144539 | 67 | 190 | 5.0 | 11.0 | 0.00 | 0.01 | 0.01 | 71 | 1010.1 |
| 20260901143031 | 68 | 182 | 4.0 | 15.0 | 0.00 | 0.01 | 0.01 | 73 | 1009.9 |
| 20260901141530 | 68 | 201 | 3.0 | 12.0 | 0.00 | 0.01 | 0.01 | 73 | 1009.8 |
| 20260901140046 | 68 | 150 | 5.0 | 12.0 | 0.00 | 0.01 | 0.01 | 72 | 1009.8 |
| 20260901134529 | 67 | 202 | 3.0 | 14.0 | 0.00 | 0.01 | 0.01 | 74 | 1009.8 |
| 20260901133027 | 67 | 205 | 3.0 | 12.0 | 0.00 | 0.01 | 0.01 | 73 | 1009.7 |
| 20260901131536 | 69 | 162 | 3.0 | 11.0 | 0.00 | 0.01 | 0.01 | 69 | 1009.6 |
| 20260901130025 | 71 | 184 | 4.0 | 12.0 | 0.00 | 0.01 | 0.01 | 65 | 1009.5 |
| 20260901124524 | 71 | 184 | 4.0 | 8.0 | 0.00 | 0.01 | 0.01 | 64 | 1009.4 |
| 20260901123030 | 70 | 193 | 4.0 | 12.0 | 0.00 | 0.01 | 0.01 | 64 | 1009.3 |
| 20260901121522 | 70 | 168 | 4.0 | 8.0 | 0.00 | 0.01 | 0.01 | 64 | 1009.3 |
| 20260901120022 | 70 | 205 | 3.0 | 9.0 | 0.00 | 0.01 | 0.01 | 62 | 1009.2 |
| 20260901114524 | 71 | 192 | 3.0 | 9.0 | 0.00 | 0.01 | 0.01 | 59 | 1009.2 |
| 20260901113019 | 70 | 177 | 3.0 | 10.0 | 0.00 | 0.01 | 0.01 | 61 | 1009.1 |
| 20260901111518 | 70 | 181 | 2.0 | 9.0 | 0.00 | 0.01 | 0.01 | 65 | 1009.2 |
| 20260901110015 | 69 | 182 | 1.0 | 7.0 | 0.00 | 0.01 | 0.01 | 65 | 1009.1 |
| 20260901104514 | 69 | 187 | 3.0 | 9.0 | 0.00 | 0.01 | 0.01 | 68 | 1009.0 |
| 20260901103012 | 69 | 179 | 5.0 | 9.0 | 0.00 | 0.01 | 0.01 | 70 | 1009.0 |
| 20260901101520 | 68 | 170 | 3.0 | 6.0 | 0.00 | 0.01 | 0.01 | 70 | 1009.0 |
| 20260901100007 | 67 | 186 | 2.0 | 6.0 | 0.00 | 0.01 | 0.01 | 73 | 1009.0 |
| 20260901094504 | 66 | 163 | 2.0 | 5.0 | 0.00 | 0.01 | 0.01 | 77 | 1009.0 |
| 20260901093109 | 64 | 140 | 2.0 | 6.0 | 0.00 | 0.01 | 0.01 | 77 | 1009.0 |
| 20260901091558 | 64 | 151 | 1.0 | 4.0 | 0.00 | 0.01 | 0.01 | 76 | 1009.1 |
| 20260901090052 | 63 | 169 | 2.0 | 5.0 | 0.00 | 0.01 | 0.01 | 77 | 1009.0 |
| 20260901084551 | 62 | 148 | 3.0 | 5.0 | 0.00 | 0.01 | 0.01 | 78 | 1008.9 |
| 20260901083046 | 61 | 138 | 2.0 | 3.0 | 0.00 | 0.01 | 0.01 | 80 | 1008.8 |
| 20260901081544 | 60 | 153 | 1.0 | 3.0 | 0.00 | 0.01 | 0.01 | 83 | 1008.7 |
| 20260901080134 | 59 | 149 | 1.0 | 5.0 | 0.00 | 0.01 | 0.01 | 86 | 1008.8 |
| 20260901074537 | 58 | 144 | 0.0 | 3.0 | 0.00 | 0.01 | 0.01 | 86 | 1008.7 |